Time;durP1;ratioP1;P1;durP2;ratioP2;P2;SDS_P1;SDS_P2;PMS_P1;PMS_P2;Temp;Humidity;BMP_temperature;BMP_pressure;BME280_temperature;BME280_humidity;BME280_pressure;Samples;Min_cycle;Max_cycle;Signal;HPM_P1;HPM_P2
2023/10/25 00:01:52;;;;;;;2.13;1.33;;;13.10;72.80;;;;;;5009167;28;20040;-57
2023/10/25 00:04:19;;;;;;;5.85;1.80;;;13.10;72.80;;;;;;5010589;28;20123;-53
2023/10/25 00:06:45;;;;;;;2.45;1.77;;;13.10;72.90;;;;;;5011311;28;20041;-56
2023/10/25 00:09:14;;;;;;;2.58;1.98;;;13.10;72.90;;;;;;5008435;28;20113;-55
2023/10/25 00:11:41;;;;;;;3.15;1.65;;;13.10;72.90;;;;;;5010208;28;20338;-53
2023/10/25 00:14:08;;;;;;;3.05;1.58;;;13.10;72.90;;;;;;5007907;28;20121;-56
2023/10/25 00:16:35;;;;;;;2.13;1.55;;;13.10;72.90;;;;;;5010606;28;20045;-54
2023/10/25 00:19:01;;;;;;;3.03;1.40;;;13.10;73.00;;;;;;5012171;28;20072;-53
2023/10/25 00:21:28;;;;;;;3.80;1.80;;;13.10;73.00;;;;;;5008901;28;20042;-56
2023/10/25 00:23:57;;;;;;;4.10;1.80;;;13.10;73.00;;;;;;5010498;28;20114;-56
2023/10/25 00:26:24;;;;;;;1.92;1.30;;;13.10;72.90;;;;;;5007226;28;20033;-53
2023/10/25 00:28:52;;;;;;;2.55;1.48;;;13.10;72.90;;;;;;5008566;28;20447;-56
2023/10/25 00:31:19;;;;;;;4.10;1.55;;;13.10;73.10;;;;;;4993133;28;20055;-57
2023/10/25 00:33:45;;;;;;;2.15;1.23;;;13.10;73.10;;;;;;4993492;28;20116;-56
2023/10/25 00:36:14;;;;;;;3.42;2.20;;;13.10;73.00;;;;;;4991153;28;20050;-57
2023/10/25 00:38:41;;;;;;;5.50;1.70;;;13.10;73.00;;;;;;5010577;28;20042;-54
2023/10/25 00:41:08;;;;;;;4.57;1.48;;;13.20;73.10;;;;;;5010244;28;20112;-57
2023/10/25 00:43:35;;;;;;;1.85;1.40;;;13.10;73.60;;;;;;4990499;28;20049;-56
2023/10/25 00:46:12;;;;;;;1.77;1.50;;;13.20;73.00;;;;;;5011107;28;20451;-57
2023/10/25 00:48:49;;;;;;;2.65;1.60;;;13.20;73.10;;;;;;4994130;28;20046;-54
2023/10/25 00:51:17;;;;;;;2.78;1.65;;;13.20;73.10;;;;;;5010533;28;20038;-57
2023/10/25 00:53:55;;;;;;;3.78;1.65;;;13.20;72.90;;;;;;5010368;28;20046;-55
2023/10/25 00:56:24;;;;;;;2.90;1.30;;;13.20;73.00;;;;;;5003713;28;20389;-56
2023/10/25 00:58:55;;;;;;;2.53;1.00;;;13.20;72.90;;;;;;5012089;28;20112;-52
2023/10/25 01:01:23;;;;;;;1.33;1.10;;;13.20;72.90;;;;;;5007059;28;20041;-56
2023/10/25 01:03:50;;;;;;;2.15;1.27;;;13.20;72.80;;;;;;4986689;28;20045;-55
2023/10/25 01:06:17;;;;;;;3.03;1.65;;;13.20;72.80;;;;;;5007341;28;20044;-53
2023/10/25 01:08:46;;;;;;;1.45;1.35;;;13.20;73.30;;;;;;4994045;28;20061;-56
2023/10/25 01:11:14;;;;;;;4.97;1.10;;;13.20;72.60;;;;;;4989737;28;20076;-55
2023/10/25 01:13:41;;;;;;;1.55;1.38;;;13.20;72.40;;;;;;4993897;28;20119;-56
2023/10/25 01:16:07;;;;;;;3.25;1.80;;;13.20;72.40;;;;;;5010268;28;20124;-55
2023/10/25 01:18:36;;;;;;;2.10;1.05;;;13.10;72.40;;;;;;4989433;28;20073;-55
2023/10/25 01:21:04;;;;;;;2.83;1.35;;;13.10;72.30;;;;;;4992141;28;20069;-54
2023/10/25 01:23:31;;;;;;;1.95;1.08;;;13.10;72.10;;;;;;4993348;28;20048;-54
2023/10/25 01:25:57;;;;;;;2.60;1.20;;;13.10;72.10;;;;;;4987981;28;20058;-55
2023/10/25 01:28:24;;;;;;;3.15;1.48;;;13.00;72.10;;;;;;4992943;28;20038;-54
2023/10/25 01:30:52;;;;;;;2.10;1.10;;;13.00;72.10;;;;;;4988770;28;20080;-53
2023/10/25 01:33:22;;;;;;;3.40;1.60;;;13.00;72.20;;;;;;5003969;28;20670;-53
2023/10/25 01:35:50;;;;;;;2.15;1.40;;;12.90;72.10;;;;;;4991509;28;20065;-54
2023/10/25 01:38:18;;;;;;;3.30;1.65;;;12.90;72.10;;;;;;5010589;28;20046;-54
2023/10/25 01:40:44;;;;;;;5.47;1.50;;;12.90;72.00;;;;;;4992083;28;20050;-54
2023/10/25 01:43:11;;;;;;;2.03;1.50;;;12.90;72.00;;;;;;4991474;28;20127;-56
2023/10/25 01:45:38;;;;;;;3.00;1.42;;;12.80;71.90;;;;;;5010092;28;20034;-53
2023/10/25 01:48:04;;;;;;;5.53;2.00;;;12.80;71.90;;;;;;4988611;28;20058;-54
2023/10/25 01:50:31;;;;;;;2.35;1.27;;;12.80;71.80;;;;;;5007420;28;20033;-53
2023/10/25 01:52:58;;;;;;;3.38;1.83;;;12.70;71.60;;;;;;5003763;28;20448;-53
2023/10/25 01:55:24;;;;;;;1.55;1.15;;;12.70;71.60;;;;;;5007650;28;20108;-54
2023/10/25 01:57:51;;;;;;;1.83;1.30;;;12.70;71.60;;;;;;4996035;28;20099;-56
2023/10/25 02:00:18;;;;;;;3.67;1.15;;;12.70;71.50;;;;;;4975724;28;20045;-53
2023/10/25 02:02:47;;;;;;;1.77;1.40;;;12.60;71.50;;;;;;5010159;28;20516;-56
2023/10/25 02:05:16;;;;;;;1.90;1.20;;;12.60;71.30;;;;;;5006442;28;20412;-56
2023/10/25 02:07:44;;;;;;;3.47;1.30;;;12.60;71.40;;;;;;5009855;28;20125;-54
2023/10/25 02:10:11;;;;;;;1.85;1.33;;;12.50;71.60;;;;;;5003287;28;20117;-55
2023/10/25 02:12:38;;;;;;;2.22;1.30;;;12.50;71.60;;;;;;5005818;28;20566;-55
2023/10/25 02:15:05;;;;;;;1.50;0.98;;;12.50;71.70;;;;;;4991482;28;20475;-55
2023/10/25 02:17:33;;;;;;;2.03;1.27;;;12.50;71.70;;;;;;4991306;28;20396;-56
2023/10/25 02:19:59;;;;;;;1.42;1.20;;;12.50;71.70;;;;;;4989451;28;20056;-56
2023/10/25 02:22:26;;;;;;;1.45;1.27;;;12.50;71.80;;;;;;4992036;28;20065;-55
2023/10/25 02:24:53;;;;;;;3.10;1.45;;;12.50;71.90;;;;;;5007705;28;20452;-54
2023/10/25 02:27:23;;;;;;;1.83;1.10;;;12.50;71.90;;;;;;5008471;28;20064;-56
2023/10/25 02:29:49;;;;;;;4.50;1.63;;;12.50;72.00;;;;;;5008208;28;20419;-54
2023/10/25 02:32:19;;;;;;;3.28;1.40;;;12.40;71.90;;;;;;4991876;28;20104;-53
2023/10/25 02:34:46;;;;;;;2.83;1.30;;;12.50;72.10;;;;;;5007811;28;20111;-56
2023/10/25 02:37:13;;;;;;;1.73;1.30;;;12.50;72.20;;;;;;5007946;28;20523;-56
2023/10/25 02:39:42;;;;;;;2.13;1.92;;;12.50;72.10;;;;;;5008666;28;20044;-53
2023/10/25 02:42:12;;;;;;;5.03;1.50;;;12.50;72.30;;;;;;5009161;28;20069;-54
2023/10/25 02:44:39;;;;;;;2.50;1.27;;;12.50;72.40;;;;;;4990145;28;20046;-56
2023/10/25 02:47:08;;;;;;;4.38;1.95;;;12.50;72.40;;;;;;4989071;28;20074;-57
2023/10/25 02:49:35;;;;;;;3.00;1.38;;;12.50;72.50;;;;;;5009689;28;20459;-57
2023/10/25 02:52:02;;;;;;;2.25;1.33;;;12.50;72.50;;;;;;4991103;28;20069;-56
2023/10/25 02:54:29;;;;;;;2.58;1.35;;;12.50;72.50;;;;;;4988458;28;20109;-57
2023/10/25 02:56:56;;;;;;;4.18;1.52;;;12.50;72.50;;;;;;5006504;28;20084;-57
2023/10/25 02:59:24;;;;;;;2.30;1.48;;;12.50;72.50;;;;;;4989115;28;20096;-57
2023/10/25 03:01:51;;;;;;;3.38;1.55;;;12.50;72.40;;;;;;5007546;28;20459;-56
2023/10/25 03:04:17;;;;;;;4.35;1.48;;;12.50;72.50;;;;;;5009140;28;20038;-56
2023/10/25 03:06:47;;;;;;;2.63;1.70;;;12.50;72.50;;;;;;5012519;28;20050;-56
2023/10/25 03:09:14;;;;;;;2.80;1.30;;;12.50;72.50;;;;;;5013270;28;20037;-56
2023/10/25 03:11:41;;;;;;;1.55;1.27;;;12.60;72.60;;;;;;5008613;28;20041;-56
2023/10/25 03:14:07;;;;;;;7.93;1.70;;;12.50;72.50;;;;;;4996584;28;20412;-55
2023/10/25 03:16:34;;;;;;;2.67;1.42;;;12.60;72.60;;;;;;4995072;28;20136;-56
2023/10/25 03:19:01;;;;;;;2.83;1.48;;;12.60;72.80;;;;;;4990843;28;20050;-56
2023/10/25 03:21:30;;;;;;;3.45;1.40;;;12.60;72.80;;;;;;5006744;28;20109;-53
2023/10/25 03:23:59;;;;;;;3.55;1.30;;;12.60;72.70;;;;;;4995197;28;20132;-57
2023/10/25 03:26:25;;;;;;;2.47;1.58;;;12.60;72.70;;;;;;4990995;28;20050;-57
2023/10/25 03:28:52;;;;;;;2.22;1.65;;;12.60;72.60;;;;;;4996240;28;20171;-56
2023/10/25 03:31:19;;;;;;;2.13;1.45;;;12.60;72.60;;;;;;4994579;28;20103;-57
2023/10/25 03:33:45;;;;;;;2.70;1.65;;;12.60;72.40;;;;;;4993473;28;20656;-57
2023/10/25 03:36:12;;;;;;;4.03;1.60;;;12.60;72.40;;;;;;5012254;28;20046;-54
2023/10/25 03:38:39;;;;;;;3.22;1.67;;;12.50;72.50;;;;;;4995539;28;20612;-56
2023/10/25 03:41:07;;;;;;;5.18;1.80;;;12.50;72.70;;;;;;4994242;28;20165;-56
2023/10/25 03:43:37;;;;;;;3.97;2.10;;;12.50;72.80;;;;;;4992048;28;20057;-56
2023/10/25 03:46:07;;;;;;;4.30;1.83;;;12.60;73.00;;;;;;5012026;28;20699;-55
2023/10/25 03:48:36;;;;;;;3.72;1.50;;;12.60;73.30;;;;;;4995844;28;20472;-56
2023/10/25 03:51:04;;;;;;;6.90;1.50;;;12.60;73.30;;;;;;5012176;28;20468;-57
2023/10/25 03:53:36;;;;;;;5.05;1.67;;;12.60;73.30;;;;;;4992588;28;20142;-56
2023/10/25 03:56:04;;;;;;;3.65;1.83;;;12.60;73.40;;;;;;4991843;28;20053;-56
2023/10/25 03:58:33;;;;;;;3.60;1.58;;;12.70;73.40;;;;;;4995141;28;20535;-55
2023/10/25 04:01:06;;;;;;;3.65;1.80;;;12.70;73.30;;;;;;5011794;28;20061;-56
2023/10/25 04:03:37;;;;;;;2.42;1.58;;;12.70;73.50;;;;;;5010942;28;20108;-53
2023/10/25 04:06:05;;;;;;;3.47;1.55;;;12.70;73.30;;;;;;5008120;28;20108;-55
2023/10/25 04:08:32;;;;;;;6.28;2.03;;;12.70;73.30;;;;;;4995235;28;20088;-55
2023/10/25 04:11:00;;;;;;;5.25;2.67;;;12.70;73.30;;;;;;5009414;28;20120;-54
2023/10/25 04:13:27;;;;;;;5.97;2.17;;;12.80;73.30;;;;;;5011885;28;20123;-56
2023/10/25 04:16:07;;;;;;;3.85;2.20;;;12.80;73.20;;;;;;5010661;28;20460;-56
2023/10/25 04:18:34;;;;;;;5.45;2.65;;;12.80;73.30;;;;;;5010430;28;20034;-56
2023/10/25 04:21:01;;;;;;;5.72;2.70;;;12.80;73.10;;;;;;5009733;28;20041;-55
2023/10/25 04:23:30;;;;;;;5.88;2.60;;;12.80;73.10;;;;;;5007805;28;20613;-56
2023/10/25 04:26:04;;;;;;;6.35;2.05;;;12.80;73.00;;;;;;5008519;28;20052;-55
2023/10/25 04:28:31;;;;;;;6.80;2.95;;;12.80;73.10;;;;;;5012024;28;20555;-55
2023/10/25 04:30:58;;;;;;;9.50;2.50;;;12.80;73.00;;;;;;5010945;28;20116;-54
2023/10/25 04:33:25;;;;;;;3.20;1.60;;;12.80;73.00;;;;;;5012045;28;20036;-57
2023/10/25 04:35:52;;;;;;;5.90;2.60;;;12.80;73.00;;;;;;5007983;28;20073;-52
2023/10/25 04:38:19;;;;;;;4.80;2.55;;;12.80;73.00;;;;;;5011780;28;20045;-53
2023/10/25 04:40:46;;;;;;;9.00;2.67;;;12.80;73.00;;;;;;5010688;28;20053;-55
2023/10/25 04:43:13;;;;;;;4.90;2.50;;;12.80;73.00;;;;;;5010131;28;20125;-55
2023/10/25 04:45:39;;;;;;;4.18;2.50;;;12.80;72.90;;;;;;5011033;28;20038;-55
2023/10/25 04:48:06;;;;;;;2.72;2.10;;;12.70;72.80;;;;;;5011745;28;20038;-55
2023/10/25 04:50:36;;;;;;;7.15;2.00;;;12.70;72.90;;;;;;5010809;28;20045;-54
2023/10/25 04:53:03;;;;;;;6.65;2.50;;;12.70;72.90;;;;;;5007793;28;20108;-55
2023/10/25 04:55:31;;;;;;;2.38;1.67;;;12.70;72.80;;;;;;5007676;28;20045;-55
2023/10/25 04:57:58;;;;;;;2.65;1.60;;;12.70;72.80;;;;;;5010073;28;20046;-55
2023/10/25 05:00:25;;;;;;;2.35;1.55;;;12.70;72.80;;;;;;5010394;28;20120;-56
2023/10/25 05:02:52;;;;;;;3.22;1.67;;;12.70;72.80;;;;;;5004578;28;20048;-55
2023/10/25 05:05:18;;;;;;;3.65;1.80;;;12.70;72.80;;;;;;5008431;28;20616;-56
2023/10/25 05:07:46;;;;;;;2.95;1.58;;;12.70;72.90;;;;;;5006351;28;20129;-57
2023/10/25 05:10:13;;;;;;;6.53;1.65;;;12.60;72.90;;;;;;5004863;28;20034;-56
2023/10/25 05:12:44;;;;;;;3.50;1.88;;;12.60;72.90;;;;;;5003252;28;20046;-56
2023/10/25 05:15:14;;;;;;;4.40;1.50;;;12.60;73.00;;;;;;5003441;28;20052;-57
2023/10/25 05:17:42;;;;;;;3.95;1.58;;;12.60;73.00;;;;;;5003166;28;20034;-56
2023/10/25 05:20:09;;;;;;;2.70;1.27;;;12.60;73.00;;;;;;5005117;28;20049;-56
2023/10/25 05:22:38;;;;;;;2.90;1.88;;;12.60;73.10;;;;;;5003781;28;20121;-56
2023/10/25 05:25:07;;;;;;;1.40;1.30;;;12.60;73.70;;;;;;5001171;28;20052;-56
2023/10/25 05:27:36;;;;;;;4.20;1.50;;;12.60;73.10;;;;;;5004985;28;20057;-56
2023/10/25 05:30:04;;;;;;;3.40;1.83;;;12.60;73.00;;;;;;5004482;28;20519;-55
2023/10/25 05:32:33;;;;;;;2.95;1.58;;;12.60;73.00;;;;;;5003291;28;20424;-57
2023/10/25 05:35:00;;;;;;;2.20;1.30;;;12.60;72.90;;;;;;5003673;28;20048;-53
2023/10/25 05:37:28;;;;;;;1.80;1.40;;;12.60;72.90;;;;;;5002537;28;20075;-56
2023/10/25 05:39:56;;;;;;;1.23;1.15;;;12.60;72.80;;;;;;5002120;28;20077;-57
2023/10/25 05:42:27;;;;;;;3.17;1.30;;;12.60;72.80;;;;;;5003967;28;20057;-57
2023/10/25 05:44:55;;;;;;;1.90;1.70;;;12.60;72.80;;;;;;5008896;28;20044;-57
2023/10/25 05:47:26;;;;;;;3.90;1.38;;;12.60;72.90;;;;;;5008224;28;20041;-57
2023/10/25 05:49:53;;;;;;;2.53;1.85;;;12.60;73.00;;;;;;4984485;28;20046;-56
2023/10/25 05:52:21;;;;;;;4.10;1.88;;;12.60;73.10;;;;;;5006677;28;20994;-57
2023/10/25 05:54:48;;;;;;;2.50;1.83;;;12.60;73.10;;;;;;4990049;28;20049;-57
2023/10/25 05:57:15;;;;;;;2.60;1.52;;;12.50;73.10;;;;;;5006801;28;20050;-56
2023/10/25 05:59:42;;;;;;;3.65;1.30;;;12.50;73.10;;;;;;5008488;28;20048;-57
2023/10/25 06:02:11;;;;;;;3.60;1.58;;;12.50;73.00;;;;;;4989339;28;20548;-57
2023/10/25 06:04:41;;;;;;;3.25;1.90;;;12.50;73.10;;;;;;5006642;28;20066;-57
2023/10/25 06:07:10;;;;;;;2.67;2.17;;;12.60;73.10;;;;;;4988811;28;20579;-57
2023/10/25 06:09:38;;;;;;;2.90;2.15;;;12.60;73.20;;;;;;5008842;28;20057;-57
2023/10/25 06:12:06;;;;;;;2.70;1.88;;;12.60;73.20;;;;;;5007333;28;20467;-57
2023/10/25 06:14:33;;;;;;;2.42;1.85;;;12.60;73.30;;;;;;5007805;28;20133;-57
2023/10/25 06:17:00;;;;;;;2.63;2.00;;;12.60;73.40;;;;;;5008177;28;20128;-55
2023/10/25 06:19:28;;;;;;;3.13;2.05;;;12.70;73.60;;;;;;5006578;28;20050;-57
2023/10/25 06:21:55;;;;;;;3.97;1.65;;;12.60;73.60;;;;;;5006187;28;20049;-57
2023/10/25 06:24:23;;;;;;;5.97;2.10;;;12.60;73.60;;;;;;5010350;28;20050;-57
2023/10/25 06:26:50;;;;;;;3.58;2.25;;;12.60;73.70;;;;;;5005316;28;20042;-57
2023/10/25 06:29:19;;;;;;;4.35;1.90;;;12.70;73.70;;;;;;5010124;28;20049;-57
2023/10/25 06:31:52;;;;;;;2.85;1.65;;;12.70;73.80;;;;;;5006666;28;20108;-57
2023/10/25 06:34:19;;;;;;;3.88;1.95;;;12.70;74.40;;;;;;5008757;28;20092;-57
2023/10/25 06:36:47;;;;;;;4.57;2.22;;;12.80;73.70;;;;;;5009401;28;20046;-57
2023/10/25 06:39:15;;;;;;;4.95;2.17;;;12.80;73.70;;;;;;5008599;28;20719;-57
2023/10/25 06:41:43;;;;;;;4.18;2.50;;;12.80;73.70;;;;;;5009055;28;20496;-62
2023/10/25 06:44:10;;;;;;;3.45;2.40;;;12.80;73.60;;;;;;5002687;28;20038;-57
2023/10/25 06:46:37;;;;;;;3.72;2.55;;;12.80;73.70;;;;;;5008994;28;20117;-57
2023/10/25 06:49:04;;;;;;;2.95;2.38;;;12.80;73.70;;;;;;5001356;28;20038;-56
2023/10/25 06:51:31;;;;;;;3.15;2.40;;;12.90;73.70;;;;;;5004369;28;20501;-57
2023/10/25 06:53:58;;;;;;;4.80;2.72;;;12.90;73.70;;;;;;5001505;28;20065;-57
2023/10/25 06:56:25;;;;;;;5.18;2.80;;;12.90;73.70;;;;;;5001305;28;20081;-57
2023/10/25 06:58:52;;;;;;;4.90;2.92;;;13.00;73.80;;;;;;4998155;28;20125;-56
2023/10/25 07:01:23;;;;;;;3.40;2.38;;;13.00;73.80;;;;;;4998487;28;20049;-57
2023/10/25 07:03:52;;;;;;;3.38;2.50;;;13.00;73.80;;;;;;4999855;28;20049;-55
2023/10/25 07:06:19;;;;;;;3.47;2.80;;;13.10;73.90;;;;;;5001846;28;20038;-56
2023/10/25 07:08:48;;;;;;;4.18;2.90;;;13.10;73.80;;;;;;4995049;28;20045;-57
2023/10/25 07:11:16;;;;;;;7.05;2.55;;;13.10;73.70;;;;;;4999464;28;20041;-57
2023/10/25 07:13:43;;;;;;;4.72;2.75;;;13.20;73.70;;;;;;5001126;28;20456;-57
2023/10/25 07:16:09;;;;;;;3.30;2.55;;;13.20;73.60;;;;;;5001446;28;20113;-57
2023/10/25 07:18:36;;;;;;;4.40;3.45;;;13.20;73.60;;;;;;5005877;28;20129;-57
2023/10/25 07:21:06;;;;;;;4.75;2.10;;;13.30;73.60;;;;;;5006472;28;20037;-57
2023/10/25 07:23:35;;;;;;;7.15;2.63;;;13.40;73.60;;;;;;5008243;28;20046;-57
2023/10/25 07:26:02;;;;;;;2.20;2.00;;;13.40;73.60;;;;;;5004544;28;20042;-57
2023/10/25 07:28:28;;;;;;;5.40;2.45;;;13.40;73.40;;;;;;5009128;28;20118;-56
2023/10/25 07:30:55;;;;;;;2.95;2.42;;;13.40;73.40;;;;;;5001931;28;20042;-57
2023/10/25 07:33:24;;;;;;;4.50;2.20;;;13.50;73.30;;;;;;5009894;28;20061;-56
2023/10/25 07:35:51;;;;;;;3.35;2.60;;;13.50;73.20;;;;;;5005886;28;20053;-56
2023/10/25 07:38:20;;;;;;;3.05;2.20;;;13.60;73.20;;;;;;5008238;28;20042;-57
2023/10/25 07:40:49;;;;;;;3.30;2.15;;;13.60;73.10;;;;;;5009097;28;20053;-58
2023/10/25 07:43:15;;;;;;;8.55;2.50;;;13.60;73.00;;;;;;5006383;28;20141;-56
2023/10/25 07:45:44;;;;;;;3.03;1.85;;;13.60;72.90;;;;;;5007972;28;20083;-56
2023/10/25 07:48:11;;;;;;;2.35;1.98;;;13.70;72.80;;;;;;5009093;28;20540;-57
2023/10/25 07:50:38;;;;;;;3.15;2.00;;;13.70;72.70;;;;;;5005822;28;20133;-56
2023/10/25 07:53:04;;;;;;;2.90;1.67;;;13.80;72.70;;;;;;5009486;28;20092;-57
2023/10/25 07:55:31;;;;;;;3.40;1.77;;;13.80;72.70;;;;;;5007554;28;20042;-55
2023/10/25 07:58:00;;;;;;;4.20;2.25;;;13.80;72.50;;;;;;5012425;28;20053;-57
2023/10/25 08:00:30;;;;;;;3.10;1.60;;;13.90;72.60;;;;;;5012339;28;20432;-57
2023/10/25 08:02:57;;;;;;;1.90;1.75;;;13.90;72.50;;;;;;5013142;28;20054;-56
2023/10/25 08:05:24;;;;;;;4.43;1.70;;;14.00;72.60;;;;;;5009293;28;20070;-56
2023/10/25 08:07:51;;;;;;;2.67;1.60;;;14.00;72.40;;;;;;5011378;28;20056;-57
2023/10/25 08:10:17;;;;;;;3.35;1.77;;;14.00;72.30;;;;;;5011919;28;20048;-57
2023/10/25 08:12:44;;;;;;;5.07;1.50;;;14.10;72.30;;;;;;5012629;28;20045;-58
2023/10/25 08:15:11;;;;;;;2.05;1.25;;;14.20;72.20;;;;;;5009560;28;20507;-57
2023/10/25 08:17:37;;;;;;;4.35;1.65;;;14.20;71.80;;;;;;5011121;28;20115;-55
2023/10/25 08:20:05;;;;;;;3.47;1.88;;;14.20;71.80;;;;;;5011676;28;20053;-57
2023/10/25 08:22:33;;;;;;;3.25;1.40;;;14.20;71.90;;;;;;5010501;28;20042;-57
2023/10/25 08:25:01;;;;;;;3.25;1.83;;;14.20;71.90;;;;;;5006240;28;20045;-55
2023/10/25 08:27:27;;;;;;;3.75;1.65;;;14.30;72.00;;;;;;5012449;28;20046;-57
2023/10/25 08:29:56;;;;;;;4.00;1.55;;;14.30;71.70;;;;;;5010965;28;20038;-57
2023/10/25 08:32:22;;;;;;;2.42;1.33;;;14.40;71.70;;;;;;5012517;28;20092;-57
2023/10/25 08:34:49;;;;;;;2.75;1.50;;;14.30;71.60;;;;;;5015908;28;20503;-54
2023/10/25 08:37:16;;;;;;;1.83;1.40;;;14.30;71.50;;;;;;5011971;28;20077;-56
2023/10/25 08:39:43;;;;;;;3.47;1.25;;;14.40;71.80;;;;;;5010277;28;20077;-57
2023/10/25 08:42:13;;;;;;;3.03;1.10;;;14.40;72.00;;;;;;5006546;28;20459;-56
2023/10/25 08:44:42;;;;;;;6.00;1.65;;;14.40;72.00;;;;;;5003663;28;20045;-56
2023/10/25 08:47:11;;;;;;;2.92;1.70;;;14.40;72.00;;;;;;5002471;28;20042;-57
2023/10/25 08:49:38;;;;;;;2.90;1.52;;;14.40;71.90;;;;;;5005325;28;20050;-57
2023/10/25 08:52:06;;;;;;;4.13;2.45;;;14.40;72.00;;;;;;5009777;28;20070;-57
2023/10/25 08:54:35;;;;;;;2.60;1.80;;;14.40;72.10;;;;;;5010637;28;20050;-56
2023/10/25 08:57:04;;;;;;;3.20;2.13;;;14.50;72.30;;;;;;5010450;28;20385;-57
2023/10/25 08:59:46;;;;;;;2.22;2.03;;;14.50;72.10;;;;;;5006775;28;20053;-56
2023/10/25 09:02:14;;;;;;;4.05;2.05;;;14.50;72.20;;;;;;5009571;28;20065;-57
2023/10/25 09:04:58;;;;;;;4.50;2.33;;;14.50;72.30;;;;;;4989287;28;20137;-57
2023/10/25 09:07:30;;;;;;;3.20;2.30;;;14.50;72.60;;;;;;5009646;28;20088;-56
2023/10/25 09:09:57;;;;;;;5.22;2.88;;;14.50;72.50;;;;;;5004043;28;20472;-56
2023/10/25 09:12:25;;;;;;;4.22;2.90;;;14.50;72.40;;;;;;5006621;28;20038;-56
2023/10/25 09:14:52;;;;;;;5.78;2.67;;;14.50;72.40;;;;;;5000315;28;20041;-53
2023/10/25 09:17:21;;;;;;;3.20;2.90;;;14.50;72.50;;;;;;5004356;28;20447;-56
2023/10/25 09:19:49;;;;;;;6.57;3.42;;;14.40;73.20;;;;;;5003012;28;20071;-56
2023/10/25 09:22:27;;;;;;;5.38;3.15;;;14.50;72.90;;;;;;5003174;28;20042;-56
2023/10/25 09:24:59;;;;;;;4.85;3.75;;;14.40;72.90;;;;;;5007383;28;20034;-55
2023/10/25 09:27:27;;;;;;;4.27;3.40;;;14.40;72.80;;;;;;5006964;28;20149;-55
2023/10/25 09:30:09;;;;;;;8.00;3.90;;;14.40;72.80;;;;;;5003161;28;20493;-57
2023/10/25 09:32:52;;;;;;;6.72;4.00;;;14.40;72.90;;;;;;5009084;28;20052;-57
2023/10/25 09:35:19;;;;;;;3.85;3.42;;;14.40;72.90;;;;;;5008623;28;20040;-54
2023/10/25 09:37:46;;;;;;;5.45;3.60;;;14.40;72.90;;;;;;5008493;28;20140;-57
2023/10/25 09:40:13;;;;;;;2.75;2.50;;;14.40;73.00;;;;;;5010307;28;20042;-56
2023/10/25 09:42:49;;;;;;;3.78;3.10;;;14.40;72.90;;;;;;5009633;28;20677;-57
2023/10/25 09:45:23;;;;;;;4.13;2.55;;;14.40;73.00;;;;;;5009025;28;20042;-56
2023/10/25 09:47:55;;;;;;;4.97;2.70;;;14.30;73.20;;;;;;5008040;28;20037;-56
2023/10/25 09:50:32;;;;;;;5.60;2.53;;;14.30;73.10;;;;;;5007663;28;20046;-56
2023/10/25 09:53:10;;;;;;;5.28;2.60;;;14.30;73.30;;;;;;5008736;28;20450;-57
2023/10/25 09:55:41;;;;;;;3.47;2.20;;;14.30;73.30;;;;;;5003524;28;20054;-55
2023/10/25 09:58:10;;;;;;;4.32;3.05;;;14.30;73.20;;;;;;5004912;28;20518;-56
2023/10/25 10:00:37;;;;;;;3.10;2.80;;;14.30;73.30;;;;;;5008545;28;20042;-58
2023/10/25 10:03:14;;;;;;;3.88;2.40;;;14.30;73.40;;;;;;5009229;28;20077;-56
2023/10/25 10:05:51;;;;;;;5.15;2.83;;;14.30;73.60;;;;;;5005846;28;20515;-56
2023/10/25 10:08:29;;;;;;;5.05;3.22;;;14.30;73.70;;;;;;4987292;28;20096;-56
2023/10/25 10:11:00;;;;;;;4.93;3.05;;;14.30;73.60;;;;;;5005314;28;20041;-52
2023/10/25 10:13:26;;;;;;;4.45;2.50;;;14.40;73.70;;;;;;5004083;28;20065;-54
2023/10/25 10:16:04;;;;;;;3.45;2.60;;;14.40;73.80;;;;;;5005738;28;20050;-54
2023/10/25 10:18:32;;;;;;;3.70;2.15;;;14.40;73.90;;;;;;5008940;28;20116;-55
2023/10/25 10:21:01;;;;;;;3.15;2.13;;;14.40;73.70;;;;;;5008655;28;20042;-55
2023/10/25 10:23:49;;;;;;;4.35;2.22;;;14.50;73.70;;;;;;4988925;28;20054;-55
2023/10/25 10:26:46;;;;;;;5.03;2.15;;;14.50;73.90;;;;;;4996540;28;20042;-55
2023/10/25 10:29:31;;;;;;;5.55;3.10;;;14.50;74.00;;;;;;5003994;28;20496;-54
2023/10/25 10:31:59;;;;;;;3.17;1.80;;;14.60;73.60;;;;;;4997955;28;20042;-55
2023/10/25 10:34:49;;;;;;;2.83;1.90;;;14.60;73.50;;;;;;5008003;28;20061;-53
2023/10/25 10:37:22;;;;;;;3.00;2.08;;;14.60;73.60;;;;;;5000604;28;20124;-54
2023/10/25 10:39:57;;;;;;;4.35;2.30;;;14.70;73.60;;;;;;5001233;28;20073;-57
2023/10/25 10:42:33;;;;;;;2.75;1.92;;;14.70;74.30;;;;;;5004008;28;20115;-55
2023/10/25 10:45:02;;;;;;;3.58;2.47;;;14.70;73.40;;;;;;5004148;28;20147;-56
2023/10/25 10:47:41;;;;;;;2.67;2.20;;;14.70;73.40;;;;;;5003604;28;20049;-57
2023/10/25 10:50:10;;;;;;;2.70;1.60;;;14.80;73.70;;;;;;5005377;28;20049;-55
2023/10/25 10:52:37;;;;;;;3.92;1.90;;;14.70;73.40;;;;;;5004729;28;20120;-56
2023/10/25 10:55:06;;;;;;;2.22;1.95;;;14.80;73.40;;;;;;5004776;28;20069;-56
2023/10/25 10:57:35;;;;;;;4.45;2.10;;;14.80;73.20;;;;;;5003751;28;20104;-54
2023/10/25 11:00:09;;;;;;;2.17;1.67;;;14.80;73.30;;;;;;5003478;28;20042;-54
2023/10/25 11:02:37;;;;;;;3.47;2.20;;;14.80;73.20;;;;;;5002754;28;20050;-56
2023/10/25 11:05:05;;;;;;;3.58;2.05;;;14.80;73.20;;;;;;5004426;28;20504;-55
2023/10/25 11:07:32;;;;;;;3.22;2.42;;;14.80;73.20;;;;;;5002838;28;20046;-56
2023/10/25 11:09:59;;;;;;;4.50;2.10;;;14.90;73.10;;;;;;5004256;28;20068;-56
2023/10/25 11:12:29;;;;;;;2.47;1.58;;;14.90;73.00;;;;;;5001471;28;20049;-54
2023/10/25 11:15:02;;;;;;;2.42;2.00;;;14.90;73.10;;;;;;5004543;28;20129;-57
2023/10/25 11:17:29;;;;;;;3.58;1.73;;;14.90;73.10;;;;;;5009083;28;20045;-56
2023/10/25 11:19:56;;;;;;;2.25;1.60;;;14.90;73.10;;;;;;5008667;28;20153;-53
2023/10/25 11:22:22;;;;;;;2.65;1.95;;;14.90;73.10;;;;;;5009397;28;20500;-52
2023/10/25 11:24:55;;;;;;;2.42;1.90;;;15.00;73.40;;;;;;4988420;28;20077;-53
2023/10/25 11:27:28;;;;;;;1.67;1.58;;;14.90;73.40;;;;;;5011262;28;20534;-53
2023/10/25 11:29:55;;;;;;;2.10;1.67;;;15.00;73.30;;;;;;5010510;28;20041;-53
2023/10/25 11:32:21;;;;;;;3.85;1.90;;;15.00;73.40;;;;;;5012595;28;20045;-57
2023/10/25 11:34:52;;;;;;;3.25;1.95;;;15.00;73.60;;;;;;5010186;28;20065;-53
2023/10/25 11:37:19;;;;;;;2.88;1.90;;;15.00;73.50;;;;;;4992838;28;20567;-55
2023/10/25 11:39:57;;;;;;;2.65;1.73;;;15.00;73.50;;;;;;5013266;28;20565;-55
2023/10/25 11:42:31;;;;;;;2.95;2.13;;;15.00;73.60;;;;;;5009401;28;20045;-53
2023/10/25 11:45:01;;;;;;;2.15;1.55;;;15.10;73.70;;;;;;5011059;28;20042;-56
2023/10/25 11:47:30;;;;;;;2.13;1.75;;;15.10;73.50;;;;;;5012441;28;20037;-52
2023/10/25 11:49:58;;;;;;;2.67;1.83;;;15.10;73.20;;;;;;5013377;28;20038;-55
2023/10/25 11:52:27;;;;;;;1.80;1.70;;;15.10;73.20;;;;;;4993170;28;20073;-54
2023/10/25 11:54:55;;;;;;;2.35;1.50;;;15.10;73.30;;;;;;5005887;28;20519;-56
2023/10/25 11:57:23;;;;;;;1.40;1.30;;;15.10;73.20;;;;;;5006757;28;20123;-55
2023/10/25 11:59:50;;;;;;;1.70;1.60;;;15.10;73.20;;;;;;5013369;28;20100;-55
2023/10/25 12:02:20;;;;;;;2.53;1.70;;;15.10;73.40;;;;;;5012188;28;20077;-55
2023/10/25 12:04:48;;;;;;;2.35;1.60;;;15.10;73.40;;;;;;5009816;28;20101;-53
2023/10/25 12:07:15;;;;;;;2.42;1.70;;;15.00;73.40;;;;;;5011494;28;20042;-55
2023/10/25 12:09:45;;;;;;;1.58;1.42;;;15.00;73.40;;;;;;5011259;28;20092;-53
2023/10/25 12:12:12;;;;;;;2.08;1.88;;;15.00;73.50;;;;;;5010824;28;20038;-56
2023/10/25 12:14:39;;;;;;;1.73;1.63;;;15.00;73.70;;;;;;4990492;28;20126;-56
2023/10/25 12:17:07;;;;;;;2.15;1.60;;;15.00;73.70;;;;;;5011337;28;20552;-55
2023/10/25 12:19:35;;;;;;;2.13;1.92;;;15.00;73.60;;;;;;5009576;28;20046;-55
2023/10/25 12:22:07;;;;;;;3.28;1.70;;;14.90;73.70;;;;;;5011411;28;20042;-55
2023/10/25 12:24:35;;;;;;;2.50;1.70;;;15.00;73.80;;;;;;5012574;28;20554;-57
2023/10/25 12:27:03;;;;;;;2.15;1.77;;;14.90;73.70;;;;;;5009602;28;20049;-54
2023/10/25 12:29:30;;;;;;;2.65;1.60;;;14.90;73.70;;;;;;5008331;28;20045;-57
2023/10/25 12:31:57;;;;;;;1.60;1.50;;;14.90;73.80;;;;;;5005707;28;20501;-54
2023/10/25 12:34:24;;;;;;;3.30;1.63;;;14.90;73.80;;;;;;5002306;28;20484;-55
2023/10/25 12:36:51;;;;;;;2.42;1.90;;;14.90;73.90;;;;;;5002266;28;20129;-54
2023/10/25 12:39:20;;;;;;;2.30;2.08;;;14.90;74.20;;;;;;5009516;28;20038;-57
2023/10/25 12:41:47;;;;;;;3.58;2.03;;;14.80;74.20;;;;;;5004879;28;20054;-56
2023/10/25 12:44:13;;;;;;;2.25;2.00;;;14.80;74.30;;;;;;5010365;28;20064;-56
2023/10/25 12:46:42;;;;;;;3.80;2.10;;;14.80;74.30;;;;;;5006848;28;20047;-54
2023/10/25 12:49:11;;;;;;;3.38;2.58;;;14.90;74.40;;;;;;5005225;28;20070;-57
2023/10/25 12:51:37;;;;;;;3.20;2.10;;;14.90;74.80;;;;;;5002823;28;20455;-55
2023/10/25 12:54:07;;;;;;;2.22;1.98;;;14.80;74.50;;;;;;5005908;28;20081;-54
2023/10/25 12:56:34;;;;;;;2.08;1.83;;;14.80;74.50;;;;;;5005763;28;20056;-56